createdAt,value
2023-03-05T00:01:56.924Z,5.45
2023-03-05T00:04:23.602Z,4.43
2023-03-05T00:06:50.302Z,15.98
2023-03-05T00:09:17.322Z,6.28
2023-03-05T00:11:44.012Z,4.68
2023-03-05T00:14:11.295Z,5.30
2023-03-05T00:16:37.848Z,6.90
2023-03-05T00:19:04.486Z,9.85
2023-03-05T00:21:36.876Z,8.50
2023-03-05T00:24:06.713Z,4.57
2023-03-05T00:26:36.566Z,6.30
2023-03-05T00:29:03.661Z,12.45
2023-03-05T00:31:31.993Z,7.10
2023-03-05T00:34:01.966Z,6.20
2023-03-05T00:36:29.055Z,11.13
2023-03-05T00:38:56.171Z,9.35
2023-03-05T00:41:23.001Z,8.35
2023-03-05T00:43:49.662Z,8.35
2023-03-05T00:46:16.295Z,9.15
2023-03-05T00:48:42.905Z,9.02
2023-03-05T00:51:09.490Z,8.30
2023-03-05T00:53:36.167Z,9.88
2023-03-05T00:56:02.841Z,8.88
2023-03-05T00:58:30.053Z,7.97
2023-03-05T01:01:00.800Z,14.23
2023-03-05T01:03:27.671Z,6.95
2023-03-05T01:05:54.221Z,7.10
2023-03-05T01:08:20.847Z,9.77
2023-03-05T01:10:47.516Z,7.90
2023-03-05T01:13:14.091Z,14.13
2023-03-05T01:15:40.658Z,9.73
2023-03-05T01:18:07.422Z,8.43
2023-03-05T01:20:34.053Z,7.07
2023-03-05T01:23:01.913Z,9.38
2023-03-05T01:25:28.855Z,7.70
2023-03-05T01:27:56.244Z,9.32
2023-03-05T01:30:23.322Z,11.35
2023-03-05T01:32:49.919Z,8.32
2023-03-05T01:35:20.104Z,10.98
2023-03-05T01:37:46.785Z,10.98
2023-03-05T01:40:16.571Z,9.65
2023-03-05T01:42:58.003Z,5.20
2023-03-05T01:45:24.905Z,8.80
2023-03-05T01:47:51.445Z,9.90
2023-03-05T01:50:22.929Z,11.27
2023-03-05T01:52:58.762Z,12.45
2023-03-05T01:55:28.819Z,9.32
2023-03-05T01:58:10.055Z,9.82
2023-03-05T02:00:52.669Z,12.15
2023-03-05T02:03:20.685Z,9.45
2023-03-05T02:05:47.231Z,7.40
2023-03-05T02:08:17.414Z,6.90
2023-03-05T02:10:50.858Z,7.93
2023-03-05T02:13:22.575Z,11.60
2023-03-05T02:15:50.431Z,9.00
2023-03-05T02:18:18.391Z,7.57
2023-03-05T02:20:51.021Z,5.85
2023-03-05T02:23:21.110Z,7.72
2023-03-05T02:25:48.292Z,8.55
2023-03-05T02:28:42.620Z,11.27
2023-03-05T02:31:18.946Z,9.75
2023-03-05T02:33:46.009Z,8.63
2023-03-05T02:36:13.006Z,11.57
2023-03-05T02:38:41.011Z,9.10
2023-03-05T02:41:07.552Z,11.50
2023-03-05T02:43:36.435Z,10.05
2023-03-05T02:46:02.999Z,9.35
2023-03-05T02:48:29.540Z,9.55
2023-03-05T02:50:57.048Z,7.13
2023-03-05T02:53:23.866Z,9.25
2023-03-05T02:55:50.778Z,9.00
2023-03-05T02:58:17.963Z,5.82
2023-03-05T03:00:46.771Z,10.60
2023-03-05T03:03:14.148Z,9.60
2023-03-05T03:05:40.911Z,14.95
2023-03-05T03:08:07.892Z,6.90
2023-03-05T03:10:34.452Z,9.88
2023-03-05T03:13:01.047Z,11.60
2023-03-05T03:15:27.756Z,8.55
2023-03-05T03:17:55.353Z,8.93
2023-03-05T03:20:22.512Z,13.75
2023-03-05T03:22:49.107Z,9.25
2023-03-05T03:25:18.275Z,7.75
2023-03-05T03:27:44.821Z,10.88
2023-03-05T03:30:13.051Z,6.90
2023-03-05T03:32:39.590Z,11.85
2023-03-05T03:35:06.721Z,11.18
2023-03-05T03:37:33.396Z,8.45
2023-03-05T03:39:59.984Z,7.95
2023-03-05T03:42:26.758Z,6.13
2023-03-05T03:44:53.339Z,7.75
2023-03-05T03:47:19.980Z,9.10
2023-03-05T03:49:46.462Z,7.55
2023-03-05T03:52:13.094Z,10.68
2023-03-05T03:54:39.737Z,7.63
2023-03-05T03:57:06.448Z,7.63
2023-03-05T03:59:33.120Z,6.13
2023-03-05T04:01:59.689Z,6.47
2023-03-05T04:04:26.670Z,5.28
2023-03-05T04:06:53.480Z,5.78
2023-03-05T04:09:20.200Z,9.18
2023-03-05T04:11:46.789Z,6.47
2023-03-05T04:14:13.318Z,6.20
2023-03-05T04:16:39.877Z,7.25
2023-03-05T04:19:06.447Z,5.78
2023-03-05T04:21:32.984Z,6.88
2023-03-05T04:23:59.557Z,6.30
2023-03-05T04:26:26.083Z,6.07
2023-03-05T04:28:52.643Z,9.93
2023-03-05T04:31:20.669Z,6.00
2023-03-05T04:33:47.289Z,7.15
2023-03-05T04:36:13.918Z,7.03
2023-03-05T04:38:40.478Z,7.82
2023-03-05T04:41:07.001Z,5.78
2023-03-05T04:43:33.492Z,10.73
2023-03-05T04:46:00.051Z,7.05
2023-03-05T04:48:26.597Z,3.78
2023-03-05T04:50:53.257Z,6.00
2023-03-05T04:53:19.855Z,5.78
2023-03-05T04:55:46.513Z,7.32
2023-03-05T04:58:13.304Z,7.65
2023-03-05T05:00:39.799Z,4.72
2023-03-05T05:03:06.392Z,4.38
2023-03-05T05:05:33.067Z,4.05
2023-03-05T05:07:59.795Z,5.65
2023-03-05T05:10:26.823Z,4.15
2023-03-05T05:12:53.651Z,4.25
2023-03-05T05:15:20.942Z,5.95
2023-03-05T05:17:48.073Z,5.00
2023-03-05T05:20:16.255Z,6.90
2023-03-05T05:22:43.988Z,5.80
2023-03-05T05:25:11.194Z,5.03
2023-03-05T05:27:39.520Z,5.22
2023-03-05T05:30:06.913Z,4.95
2023-03-05T05:32:33.674Z,7.63
2023-03-05T05:35:00.468Z,4.60
2023-03-05T05:37:27.531Z,7.30
2023-03-05T05:39:54.462Z,4.57
2023-03-05T05:42:23.101Z,5.25
2023-03-05T05:44:50.185Z,4.90
2023-03-05T05:47:17.728Z,4.65
2023-03-05T05:49:44.409Z,8.52
2023-03-05T05:52:11.331Z,3.72
2023-03-05T05:54:38.366Z,3.50
2023-03-05T05:57:05.027Z,6.28
2023-03-05T05:59:31.656Z,4.95
2023-03-05T06:01:58.358Z,2.88
2023-03-05T06:04:25.264Z,4.40
2023-03-05T06:06:51.838Z,3.90
2023-03-05T06:09:18.514Z,5.13
2023-03-05T06:11:45.120Z,6.25
2023-03-05T06:14:12.876Z,7.07
2023-03-05T06:16:40.018Z,4.25
2023-03-05T06:19:06.625Z,3.95
2023-03-05T06:21:33.533Z,4.80
2023-03-05T06:24:00.295Z,4.95
2023-03-05T06:26:26.855Z,6.78
2023-03-05T06:28:53.920Z,6.18
2023-03-05T06:31:22.999Z,7.32
2023-03-05T06:33:50.187Z,5.15
2023-03-05T06:36:19.982Z,7.28
2023-03-05T06:38:48.896Z,4.68
2023-03-05T06:41:21.569Z,5.55
2023-03-05T06:43:48.928Z,4.35
2023-03-05T06:46:24.360Z,4.07
2023-03-05T06:48:51.436Z,6.70
2023-03-05T06:51:30.345Z,4.68
2023-03-05T06:54:01.062Z,7.95
2023-03-05T06:56:27.808Z,3.97
2023-03-05T06:58:54.559Z,3.85
2023-03-05T07:01:21.847Z,3.33
2023-03-05T07:03:53.464Z,8.05
2023-03-05T07:06:21.262Z,8.18
2023-03-05T07:08:48.265Z,8.88
2023-03-05T07:11:18.416Z,5.30
2023-03-05T07:13:47.862Z,6.18
2023-03-05T07:16:17.238Z,6.18
2023-03-05T07:18:44.108Z,3.45
2023-03-05T07:21:15.512Z,5.05
2023-03-05T07:23:42.217Z,5.82
2023-03-05T07:26:08.897Z,5.07
2023-03-05T07:28:35.548Z,5.40
2023-03-05T07:31:05.552Z,5.97
2023-03-05T07:33:33.635Z,3.42
2023-03-05T07:36:00.274Z,4.82
2023-03-05T07:38:27.138Z,3.83
2023-03-05T07:40:53.777Z,7.05
2023-03-05T07:43:20.482Z,5.05
2023-03-05T07:45:47.081Z,6.45
2023-03-05T07:48:20.992Z,5.97
2023-03-05T07:50:48.608Z,4.43
2023-03-05T07:53:15.779Z,4.75
2023-03-05T07:55:44.211Z,3.72
2023-03-05T07:58:11.519Z,7.18
2023-03-05T08:00:38.384Z,5.65
2023-03-05T08:03:04.989Z,3.45
2023-03-05T08:05:31.669Z,5.07
2023-03-05T08:07:58.627Z,3.75
2023-03-05T08:10:25.496Z,2.90
2023-03-05T08:12:52.321Z,5.88
2023-03-05T08:15:19.873Z,2.67
2023-03-05T08:17:46.384Z,9.30
2023-03-05T08:20:13.287Z,4.47
2023-03-05T08:22:39.825Z,4.80
2023-03-05T08:25:07.611Z,3.92
2023-03-05T08:27:34.250Z,3.05
2023-03-05T08:30:02.788Z,5.57
2023-03-05T08:32:29.385Z,5.47
2023-03-05T08:35:01.518Z,5.22
2023-03-05T08:37:28.082Z,3.00
2023-03-05T08:39:57.544Z,3.67
2023-03-05T08:42:24.592Z,2.25
2023-03-05T08:44:51.459Z,3.03
2023-03-05T08:47:20.376Z,5.75
2023-03-05T08:49:47.359Z,3.70
2023-03-05T08:52:13.898Z,3.42
2023-03-05T08:54:40.596Z,4.18
2023-03-05T08:57:07.230Z,2.92
2023-03-05T08:59:33.720Z,5.53
2023-03-05T09:02:01.500Z,6.45
2023-03-05T09:04:28.238Z,5.88
2023-03-05T09:06:54.819Z,4.53
2023-03-05T09:09:22.987Z,5.95
2023-03-05T09:11:51.709Z,4.72
2023-03-05T09:14:18.837Z,2.72
2023-03-05T09:16:45.581Z,5.78
2023-03-05T09:19:13.231Z,3.65
2023-03-05T09:21:39.944Z,4.70
2023-03-05T09:24:06.951Z,4.97
2023-03-05T09:26:33.613Z,4.53
2023-03-05T09:29:00.200Z,3.13
2023-03-05T09:31:27.010Z,5.28
2023-03-05T09:33:53.759Z,4.30
2023-03-05T09:36:24.106Z,4.18
2023-03-05T09:38:50.955Z,2.80
2023-03-05T09:41:22.023Z,5.13
2023-03-05T09:46:33.243Z,5.88
2023-03-05T09:49:21.253Z,5.93
2023-03-05T09:51:54.908Z,2.72
2023-03-05T09:54:30.163Z,3.67
2023-03-05T09:57:02.414Z,3.53
2023-03-05T09:59:33.711Z,2.97
2023-03-05T10:02:05.539Z,4.03
2023-03-05T10:05:01.196Z,2.88
2023-03-05T10:07:36.384Z,2.30
2023-03-05T10:10:09.903Z,4.63
2023-03-05T10:12:48.664Z,5.88
2023-03-05T10:15:31.902Z,3.35
2023-03-05T10:18:11.686Z,3.78
2023-03-05T10:20:44.664Z,1.83
2023-03-05T10:23:24.779Z,3.35
2023-03-05T10:26:01.265Z,3.63
2023-03-05T10:29:11.176Z,4.90
2023-03-05T10:31:45.106Z,3.92
2023-03-05T10:34:30.884Z,2.97
2023-03-05T10:37:28.538Z,5.22
2023-03-05T10:40:16.082Z,3.03
2023-03-05T10:43:12.175Z,4.05
2023-03-05T10:45:43.098Z,5.18
2023-03-05T10:50:47.788Z,4.20
2023-03-05T10:53:17.337Z,3.25
2023-03-05T10:55:44.155Z,2.45
2023-03-05T10:58:13.528Z,3.08
2023-03-05T11:00:41.444Z,4.03
2023-03-05T11:03:10.172Z,4.57
2023-03-05T11:05:55.601Z,2.92
2023-03-05T11:08:28.293Z,3.08
2023-03-05T11:11:24.094Z,3.92
2023-03-05T11:14:00.168Z,5.13
2023-03-05T11:16:28.424Z,3.67
2023-03-05T11:19:13.878Z,2.58
2023-03-05T11:21:41.275Z,1.70
2023-03-05T11:24:18.351Z,3.03
2023-03-05T11:26:51.048Z,3.20
2023-03-05T11:29:24.048Z,3.88
2023-03-05T11:31:51.389Z,2.92
2023-03-05T11:34:18.785Z,3.40
2023-03-05T11:36:52.669Z,3.28
2023-03-05T11:39:22.570Z,4.45
2023-03-05T11:41:59.208Z,2.53
2023-03-05T11:44:31.343Z,2.33
2023-03-05T11:47:16.553Z,2.50
2023-03-05T11:49:49.463Z,2.78
2023-03-05T11:52:24.059Z,2.80
2023-03-05T11:54:57.353Z,2.30
2023-03-05T11:57:25.880Z,1.70
2023-03-05T11:59:55.767Z,3.60
2023-03-05T12:02:24.579Z,3.63
2023-03-05T12:04:52.421Z,3.10
2023-03-05T12:07:28.466Z,2.40
2023-03-05T12:09:55.681Z,3.03
2023-03-05T12:12:37.520Z,7.38
2023-03-05T12:15:05.002Z,4.38
2023-03-05T12:17:40.903Z,3.50
2023-03-05T12:20:25.496Z,2.75
2023-03-05T12:22:52.413Z,2.35
2023-03-05T12:25:34.950Z,3.97
2023-03-05T12:28:02.516Z,3.05
2023-03-05T12:30:35.285Z,2.28
2023-03-05T12:33:03.462Z,2.17
2023-03-05T12:35:31.508Z,1.45
2023-03-05T12:38:01.797Z,1.85
2023-03-05T12:40:33.314Z,2.95
2023-03-05T12:43:26.401Z,2.05
2023-03-05T12:46:23.653Z,2.20
2023-03-05T12:48:50.844Z,2.13
2023-03-05T12:51:41.993Z,2.20
2023-03-05T12:54:31.656Z,1.60
2023-03-05T12:57:15.530Z,3.75
2023-03-05T12:59:49.163Z,1.38
2023-03-05T13:02:39.781Z,2.67
2023-03-05T13:05:25.144Z,2.45
2023-03-05T13:07:52.019Z,2.42
2023-03-05T13:10:27.463Z,2.58
2023-03-05T13:12:58.556Z,3.20
2023-03-05T13:15:27.521Z,4.30
2023-03-05T13:18:08.560Z,2.42
2023-03-05T13:20:40.796Z,3.20
2023-03-05T13:23:21.378Z,3.58
2023-03-05T13:25:57.124Z,4.85
2023-03-05T13:28:24.267Z,3.08
2023-03-05T13:30:53.159Z,2.45
2023-03-05T13:33:26.528Z,3.40
2023-03-05T13:35:54.134Z,2.00
2023-03-05T13:38:34.881Z,2.70
2023-03-05T13:41:21.217Z,1.58
2023-03-05T13:43:50.804Z,2.75
2023-03-05T13:46:35.527Z,3.15
2023-03-05T13:49:19.288Z,3.05
2023-03-05T13:51:50.964Z,2.75
2023-03-05T13:54:19.076Z,3.08
2023-03-05T13:56:54.753Z,3.13
2023-03-05T13:59:24.273Z,6.38
2023-03-05T14:01:52.514Z,5.40
2023-03-05T14:04:22.404Z,3.63
2023-03-05T14:06:54.633Z,2.83
2023-03-05T14:09:24.606Z,2.58
2023-03-05T14:12:24.206Z,4.47
2023-03-05T14:14:52.118Z,2.55
2023-03-05T14:17:27.809Z,4.88
2023-03-05T14:20:23.212Z,3.58
2023-03-05T14:22:56.870Z,3.70
2023-03-05T14:25:35.060Z,2.20
2023-03-05T14:28:07.550Z,2.03
2023-03-05T14:30:36.370Z,1.40
2023-03-05T14:33:03.547Z,1.58
2023-03-05T14:35:30.646Z,2.78
2023-03-05T14:37:59.957Z,1.83
2023-03-05T14:40:31.492Z,2.90
2023-03-05T14:43:19.613Z,4.35
2023-03-05T14:45:48.000Z,3.08
2023-03-05T14:48:18.794Z,5.13
2023-03-05T14:53:17.822Z,6.68
2023-03-05T14:55:48.914Z,6.18
2023-03-05T14:58:18.170Z,4.85
2023-03-05T15:00:44.978Z,6.07
2023-03-05T15:03:12.589Z,5.03
2023-03-05T15:05:39.735Z,4.95
2023-03-05T15:08:06.613Z,3.75
2023-03-05T15:10:33.228Z,5.05
2023-03-05T15:13:00.868Z,2.60
2023-03-05T15:15:27.585Z,4.85
2023-03-05T15:17:57.544Z,5.18
2023-03-05T15:20:27.144Z,4.70
2023-03-05T15:22:54.685Z,4.68
2023-03-05T15:25:23.787Z,4.10
2023-03-05T15:27:51.120Z,2.63
2023-03-05T15:30:30.682Z,4.60
2023-03-05T15:33:00.363Z,5.60
2023-03-05T15:35:27.654Z,4.90
2023-03-05T15:37:54.579Z,5.63
2023-03-05T15:40:21.946Z,3.08
2023-03-05T15:42:48.816Z,3.72
2023-03-05T15:45:15.443Z,7.18
2023-03-05T15:47:42.319Z,5.25
2023-03-05T15:50:09.850Z,4.38
2023-03-05T15:52:36.647Z,4.53
2023-03-05T15:55:03.668Z,3.83
2023-03-05T15:57:30.371Z,4.43
2023-03-05T15:59:58.378Z,2.63
2023-03-05T16:02:25.260Z,7.18
2023-03-05T16:04:51.872Z,4.90
2023-03-05T16:07:19.028Z,3.97
2023-03-05T16:09:49.611Z,4.43
2023-03-05T16:12:24.426Z,5.65
2023-03-05T16:14:52.067Z,4.15
2023-03-05T16:17:20.877Z,4.80
2023-03-05T16:19:51.123Z,2.90
2023-03-05T16:22:17.904Z,2.60
2023-03-05T16:24:44.541Z,4.22
2023-03-05T16:27:11.523Z,2.60
2023-03-05T16:29:38.413Z,4.07
2023-03-05T16:32:06.063Z,5.47
2023-03-05T16:34:34.559Z,4.07
2023-03-05T16:37:04.541Z,3.40
2023-03-05T16:39:31.372Z,2.78
2023-03-05T16:41:57.998Z,4.70
2023-03-05T16:44:24.922Z,4.43
2023-03-05T16:46:53.935Z,6.18
2023-03-05T16:49:21.204Z,3.95
2023-03-05T16:51:47.913Z,5.68
2023-03-05T16:54:14.681Z,5.43
2023-03-05T16:56:41.290Z,4.93
2023-03-05T16:59:08.019Z,4.72
2023-03-05T17:01:34.772Z,2.53
2023-03-05T17:04:02.238Z,2.88
2023-03-05T17:06:30.937Z,2.70
2023-03-05T17:08:58.372Z,1.80
2023-03-05T17:11:25.940Z,3.15
2023-03-05T17:13:52.691Z,9.73
2023-03-05T17:16:20.634Z,15.00
2023-03-05T17:18:47.999Z,18.85
2023-03-05T17:21:15.373Z,32.65
2023-03-05T17:23:44.166Z,16.02
2023-03-05T17:26:13.970Z,10.73
2023-03-05T17:28:40.553Z,7.18
2023-03-05T17:31:07.429Z,7.22
2023-03-05T17:33:36.008Z,4.53
2023-03-05T17:36:03.225Z,5.13
2023-03-05T17:38:30.249Z,5.80
2023-03-05T17:40:56.909Z,4.85
2023-03-05T17:43:23.947Z,7.55
2023-03-05T17:45:50.566Z,4.13
2023-03-05T17:48:17.260Z,3.63
2023-03-05T17:50:45.175Z,6.70
2023-03-05T17:53:12.353Z,4.78
2023-03-05T17:55:39.877Z,4.20
2023-03-05T17:58:06.814Z,2.92
2023-03-05T18:00:33.575Z,5.13
2023-03-05T18:03:00.691Z,4.40
2023-03-05T18:05:27.949Z,4.35
2023-03-05T18:07:55.528Z,4.95
2023-03-05T18:10:24.721Z,3.97
2023-03-05T18:12:51.708Z,4.07
2023-03-05T18:15:20.900Z,4.30
2023-03-05T18:17:47.732Z,4.00
2023-03-05T18:20:30.531Z,3.97
2023-03-05T18:22:59.347Z,4.72
2023-03-05T18:25:31.285Z,4.28
2023-03-05T18:27:59.536Z,4.00
2023-03-05T18:30:27.121Z,4.53
2023-03-05T18:32:54.219Z,2.97
2023-03-05T18:35:21.152Z,6.22
2023-03-05T18:37:47.917Z,6.07
2023-03-05T18:40:19.329Z,11.77
2023-03-05T18:42:46.267Z,8.10
2023-03-05T18:45:18.025Z,9.50
2023-03-05T18:47:44.961Z,7.43
2023-03-05T18:50:16.860Z,6.63
2023-03-05T18:52:43.796Z,3.70
2023-03-05T18:55:18.817Z,5.53
2023-03-05T18:57:45.716Z,4.10
2023-03-05T19:00:14.676Z,5.53
2023-03-05T19:02:41.511Z,2.65
2023-03-05T19:05:09.551Z,7.43
2023-03-05T19:07:38.088Z,8.32
2023-03-05T19:10:10.129Z,5.82
2023-03-05T19:12:45.554Z,8.23
2023-03-05T19:15:13.490Z,6.00
2023-03-05T19:17:40.160Z,6.72
2023-03-05T19:20:08.563Z,8.85
2023-03-05T19:22:38.263Z,4.47
2023-03-05T19:25:06.356Z,7.25
2023-03-05T19:27:33.313Z,7.40
2023-03-05T19:30:00.441Z,6.22
2023-03-05T19:32:27.280Z,6.45
2023-03-05T19:34:57.755Z,8.07
2023-03-05T19:37:25.223Z,5.72
2023-03-05T19:39:52.599Z,9.77
2023-03-05T19:42:19.211Z,6.68
2023-03-05T19:44:45.820Z,6.90
2023-03-05T19:47:12.439Z,6.20
2023-03-05T19:49:39.269Z,6.78
2023-03-05T19:52:06.352Z,6.18
2023-03-05T19:54:33.297Z,5.63
2023-03-05T19:57:00.300Z,4.65
2023-03-05T19:59:27.143Z,5.40
2023-03-05T20:01:53.879Z,3.70
2023-03-05T20:04:22.778Z,5.22
2023-03-05T20:06:49.453Z,7.78
2023-03-05T20:09:16.392Z,5.00
2023-03-05T20:11:43.590Z,3.25
2023-03-05T20:14:13.082Z,6.30
2023-03-05T20:16:39.776Z,5.35
2023-03-05T20:19:08.156Z,3.78
2023-03-05T20:21:37.617Z,6.35
2023-03-05T20:24:12.057Z,8.40
2023-03-05T20:26:40.281Z,6.88
2023-03-05T20:29:07.398Z,6.60
2023-03-05T20:31:36.941Z,6.82
2023-03-05T20:34:05.823Z,6.53
2023-03-05T20:36:34.740Z,6.47
2023-03-05T20:39:03.141Z,6.15
2023-03-05T20:41:30.169Z,6.00
2023-03-05T20:43:57.055Z,8.40
2023-03-05T20:46:29.669Z,8.90
2023-03-05T20:48:59.696Z,6.50
2023-03-05T20:51:38.042Z,5.00
2023-03-05T20:54:07.426Z,7.22
2023-03-05T20:56:35.136Z,5.60
2023-03-05T20:59:04.726Z,5.78
2023-03-05T21:01:33.785Z,5.95
2023-03-05T21:04:06.386Z,6.18
2023-03-05T21:06:33.348Z,8.18
2023-03-05T21:09:00.302Z,8.80
2023-03-05T21:11:27.411Z,7.80
2023-03-05T21:13:54.189Z,6.03
2023-03-05T21:16:27.214Z,5.43
2023-03-05T21:18:56.051Z,4.30
2023-03-05T21:21:23.156Z,8.40
2023-03-05T21:23:50.068Z,4.20
2023-03-05T21:26:16.929Z,6.47
2023-03-05T21:28:43.544Z,8.13
2023-03-05T21:31:16.574Z,4.43
2023-03-05T21:33:43.415Z,6.10
2023-03-05T21:36:10.350Z,5.70
2023-03-05T21:38:37.056Z,5.50
2023-03-05T21:41:04.376Z,6.72
2023-03-05T21:43:31.712Z,3.80
2023-03-05T21:46:00.961Z,5.60
2023-03-05T21:48:27.936Z,6.10
2023-03-05T21:50:55.505Z,6.60
2023-03-05T21:53:22.836Z,6.90
2023-03-05T21:56:04.180Z,5.35
2023-03-05T21:58:35.264Z,6.15
2023-03-05T22:01:02.766Z,8.30
2023-03-05T22:03:30.454Z,4.63
2023-03-05T22:05:57.542Z,4.78
2023-03-05T22:08:24.673Z,6.45
2023-03-05T22:10:51.286Z,3.00
2023-03-05T22:13:20.144Z,6.63
2023-03-05T22:15:52.452Z,3.25
2023-03-05T22:18:27.484Z,5.60
2023-03-05T22:20:54.952Z,5.80
2023-03-05T22:23:24.341Z,3.15
2023-03-05T22:26:03.479Z,5.47
2023-03-05T22:28:31.175Z,4.25
2023-03-05T22:30:57.815Z,6.30
2023-03-05T22:33:24.826Z,4.93
2023-03-05T22:35:52.054Z,5.20
2023-03-05T22:38:19.524Z,8.73
2023-03-05T22:40:48.158Z,4.55
2023-03-05T22:43:16.231Z,4.30
2023-03-05T22:45:42.926Z,4.55
2023-03-05T22:48:10.261Z,5.78
2023-03-05T22:50:38.134Z,4.35
2023-03-05T22:53:05.165Z,4.10
2023-03-05T22:55:31.701Z,6.65
2023-03-05T22:57:58.257Z,4.97
2023-03-05T23:00:26.758Z,4.70
2023-03-05T23:02:53.675Z,5.13
2023-03-05T23:05:20.599Z,6.25
2023-03-05T23:07:47.247Z,5.45
2023-03-05T23:10:13.890Z,4.18
2023-03-05T23:12:49.056Z,3.20
2023-03-05T23:15:22.066Z,4.82
2023-03-05T23:17:49.591Z,4.00
2023-03-05T23:20:17.834Z,5.03
2023-03-05T23:22:45.186Z,5.88
2023-03-05T23:25:14.694Z,4.95
2023-03-05T23:27:41.883Z,4.47
2023-03-05T23:30:32.524Z,5.15
2023-03-05T23:33:19.590Z,4.25
2023-03-05T23:35:52.520Z,3.42
2023-03-05T23:38:19.260Z,4.32
2023-03-05T23:40:48.467Z,6.07
2023-03-05T23:43:17.115Z,4.45
2023-03-05T23:45:45.988Z,4.00
2023-03-05T23:48:12.538Z,4.25
2023-03-05T23:50:41.392Z,6.60
2023-03-05T23:53:09.146Z,6.00
2023-03-05T23:55:41.544Z,4.53
2023-03-05T23:58:08.557Z,6.93
